sensor_id;sensor_type;location;lat;lon;timestamp;temperature;humidity
20337;DHT22;10326;53.660;10.200;2023-05-16T00:00:24;14.00;65.80
20337;DHT22;10326;53.660;10.200;2023-05-16T00:02:53;14.00;65.90
20337;DHT22;10326;53.660;10.200;2023-05-16T00:05:20;14.00;66.00
20337;DHT22;10326;53.660;10.200;2023-05-16T00:07:48;14.00;65.90
20337;DHT22;10326;53.660;10.200;2023-05-16T00:10:15;14.00;65.90
20337;DHT22;10326;53.660;10.200;2023-05-16T00:12:45;14.00;65.70
20337;DHT22;10326;53.660;10.200;2023-05-16T00:15:16;14.00;66.00
20337;DHT22;10326;53.660;10.200;2023-05-16T00:17:46;14.10;65.90
20337;DHT22;10326;53.660;10.200;2023-05-16T00:20:14;14.10;65.90
20337;DHT22;10326;53.660;10.200;2023-05-16T00:22:42;14.10;65.80
20337;DHT22;10326;53.660;10.200;2023-05-16T00:25:10;14.10;65.90
20337;DHT22;10326;53.660;10.200;2023-05-16T00:27:38;14.10;65.90
20337;DHT22;10326;53.660;10.200;2023-05-16T00:30:06;14.10;66.00
20337;DHT22;10326;53.660;10.200;2023-05-16T00:32:35;14.10;66.10
20337;DHT22;10326;53.660;10.200;2023-05-16T00:35:05;14.10;66.20
20337;DHT22;10326;53.660;10.200;2023-05-16T00:37:35;14.10;66.40
20337;DHT22;10326;53.660;10.200;2023-05-16T00:40:03;14.10;66.20
20337;DHT22;10326;53.660;10.200;2023-05-16T00:42:31;14.20;66.30
20337;DHT22;10326;53.660;10.200;2023-05-16T00:44:59;14.20;66.20
20337;DHT22;10326;53.660;10.200;2023-05-16T00:47:27;14.20;66.20
20337;DHT22;10326;53.660;10.200;2023-05-16T00:49:54;14.20;66.20
20337;DHT22;10326;53.660;10.200;2023-05-16T00:52:23;14.20;66.20
20337;DHT22;10326;53.660;10.200;2023-05-16T00:54:51;14.30;66.20
20337;DHT22;10326;53.660;10.200;2023-05-16T00:57:18;14.30;66.10
20337;DHT22;10326;53.660;10.200;2023-05-16T00:59:46;14.30;66.10
20337;DHT22;10326;53.660;10.200;2023-05-16T01:02:13;14.30;66.10
20337;DHT22;10326;53.660;10.200;2023-05-16T01:04:42;14.40;66.20
20337;DHT22;10326;53.660;10.200;2023-05-16T01:07:09;14.40;66.10
20337;DHT22;10326;53.660;10.200;2023-05-16T01:09:38;14.40;66.20
20337;DHT22;10326;53.660;10.200;2023-05-16T01:12:12;14.30;66.10
20337;DHT22;10326;53.660;10.200;2023-05-16T01:14:48;14.30;66.30
20337;DHT22;10326;53.660;10.200;2023-05-16T01:17:24;14.30;66.40
20337;DHT22;10326;53.660;10.200;2023-05-16T01:20:02;14.30;66.40
20337;DHT22;10326;53.660;10.200;2023-05-16T01:22:45;14.30;66.40
20337;DHT22;10326;53.660;10.200;2023-05-16T01:25:31;14.20;66.80
20337;DHT22;10326;53.660;10.200;2023-05-16T01:28:26;14.20;67.10
20337;DHT22;10326;53.660;10.200;2023-05-16T01:30:54;14.20;66.60
20337;DHT22;10326;53.660;10.200;2023-05-16T01:33:22;14.20;66.60
20337;DHT22;10326;53.660;10.200;2023-05-16T01:35:57;14.20;66.60
20337;DHT22;10326;53.660;10.200;2023-05-16T01:38:35;14.20;67.00
20337;DHT22;10326;53.660;10.200;2023-05-16T01:41:12;14.20;67.10
20337;DHT22;10326;53.660;10.200;2023-05-16T01:43:51;14.20;67.10
20337;DHT22;10326;53.660;10.200;2023-05-16T01:46:25;14.20;67.10
20337;DHT22;10326;53.660;10.200;2023-05-16T01:49:00;14.20;67.00
20337;DHT22;10326;53.660;10.200;2023-05-16T01:51:31;14.20;67.20
20337;DHT22;10326;53.660;10.200;2023-05-16T01:54:03;14.20;67.10
20337;DHT22;10326;53.660;10.200;2023-05-16T01:56:32;14.30;67.30
20337;DHT22;10326;53.660;10.200;2023-05-16T01:59:02;14.30;67.10
20337;DHT22;10326;53.660;10.200;2023-05-16T02:01:33;14.30;67.40
20337;DHT22;10326;53.660;10.200;2023-05-16T02:04:01;14.30;67.60
20337;DHT22;10326;53.660;10.200;2023-05-16T02:06:28;14.20;67.40
20337;DHT22;10326;53.660;10.200;2023-05-16T02:08:55;14.20;67.60
20337;DHT22;10326;53.660;10.200;2023-05-16T02:11:22;14.30;67.70
20337;DHT22;10326;53.660;10.200;2023-05-16T02:13:50;14.20;67.70
20337;DHT22;10326;53.660;10.200;2023-05-16T02:16:19;14.20;67.80
20337;DHT22;10326;53.660;10.200;2023-05-16T02:18:46;14.20;67.80
20337;DHT22;10326;53.660;10.200;2023-05-16T02:21:13;14.20;67.60
20337;DHT22;10326;53.660;10.200;2023-05-16T02:23:40;14.20;67.60
20337;DHT22;10326;53.660;10.200;2023-05-16T02:26:08;14.20;67.40
20337;DHT22;10326;53.660;10.200;2023-05-16T02:28:35;14.10;67.30
20337;DHT22;10326;53.660;10.200;2023-05-16T02:31:02;14.10;67.30
20337;DHT22;10326;53.660;10.200;2023-05-16T02:33:30;14.20;67.40
20337;DHT22;10326;53.660;10.200;2023-05-16T02:35:58;14.10;67.40
20337;DHT22;10326;53.660;10.200;2023-05-16T02:38:26;14.20;67.40
20337;DHT22;10326;53.660;10.200;2023-05-16T02:40:54;14.20;67.30
20337;DHT22;10326;53.660;10.200;2023-05-16T02:43:22;14.10;67.10
20337;DHT22;10326;53.660;10.200;2023-05-16T02:45:49;14.10;67.10
20337;DHT22;10326;53.660;10.200;2023-05-16T02:48:16;14.10;67.20
20337;DHT22;10326;53.660;10.200;2023-05-16T02:50:44;14.10;67.20
20337;DHT22;10326;53.660;10.200;2023-05-16T02:53:11;14.10;67.20
20337;DHT22;10326;53.660;10.200;2023-05-16T02:55:38;14.10;67.10
20337;DHT22;10326;53.660;10.200;2023-05-16T02:58:06;14.10;67.10
20337;DHT22;10326;53.660;10.200;2023-05-16T03:00:33;14.10;67.10
20337;DHT22;10326;53.660;10.200;2023-05-16T03:03:00;14.10;67.00
20337;DHT22;10326;53.660;10.200;2023-05-16T03:05:28;14.10;66.80
20337;DHT22;10326;53.660;10.200;2023-05-16T03:07:56;14.00;66.70
20337;DHT22;10326;53.660;10.200;2023-05-16T03:10:23;14.00;66.70
20337;DHT22;10326;53.660;10.200;2023-05-16T03:12:50;13.90;66.60
20337;DHT22;10326;53.660;10.200;2023-05-16T03:15:17;13.90;66.70
20337;DHT22;10326;53.660;10.200;2023-05-16T03:17:45;13.90;66.80
20337;DHT22;10326;53.660;10.200;2023-05-16T03:20:12;13.80;66.80
20337;DHT22;10326;53.660;10.200;2023-05-16T03:22:40;13.80;66.80
20337;DHT22;10326;53.660;10.200;2023-05-16T03:25:11;13.80;66.90
20337;DHT22;10326;53.660;10.200;2023-05-16T03:27:39;13.80;66.90
20337;DHT22;10326;53.660;10.200;2023-05-16T03:30:07;13.80;66.90
20337;DHT22;10326;53.660;10.200;2023-05-16T03:35:06;13.80;67.20
20337;DHT22;10326;53.660;10.200;2023-05-16T03:37:33;13.70;67.10
20337;DHT22;10326;53.660;10.200;2023-05-16T03:40:03;13.80;67.20
20337;DHT22;10326;53.660;10.200;2023-05-16T03:42:32;13.80;67.40
20337;DHT22;10326;53.660;10.200;2023-05-16T03:45:00;13.80;67.40
20337;DHT22;10326;53.660;10.200;2023-05-16T03:47:27;13.80;67.30
20337;DHT22;10326;53.660;10.200;2023-05-16T03:49:56;13.80;67.40
20337;DHT22;10326;53.660;10.200;2023-05-16T03:52:24;13.80;67.40
20337;DHT22;10326;53.660;10.200;2023-05-16T03:54:51;13.70;67.30
20337;DHT22;10326;53.660;10.200;2023-05-16T03:57:18;13.70;67.30
20337;DHT22;10326;53.660;10.200;2023-05-16T03:59:46;13.70;67.20
20337;DHT22;10326;53.660;10.200;2023-05-16T04:02:14;13.70;67.20
20337;DHT22;10326;53.660;10.200;2023-05-16T04:04:41;13.70;67.10
20337;DHT22;10326;53.660;10.200;2023-05-16T04:07:08;13.70;67.00
20337;DHT22;10326;53.660;10.200;2023-05-16T04:09:36;13.70;66.80
20337;DHT22;10326;53.660;10.200;2023-05-16T04:12:03;13.70;66.80
20337;DHT22;10326;53.660;10.200;2023-05-16T04:14:31;13.70;66.70
20337;DHT22;10326;53.660;10.200;2023-05-16T04:17:01;13.70;66.70
20337;DHT22;10326;53.660;10.200;2023-05-16T04:19:28;13.70;66.60
20337;DHT22;10326;53.660;10.200;2023-05-16T04:21:55;13.70;66.50
20337;DHT22;10326;53.660;10.200;2023-05-16T04:24:22;13.70;66.60
20337;DHT22;10326;53.660;10.200;2023-05-16T04:26:53;13.70;66.60
20337;DHT22;10326;53.660;10.200;2023-05-16T04:29:20;13.70;66.60
20337;DHT22;10326;53.660;10.200;2023-05-16T04:31:48;13.70;66.50
20337;DHT22;10326;53.660;10.200;2023-05-16T04:34:16;13.80;66.50
20337;DHT22;10326;53.660;10.200;2023-05-16T04:36:43;13.80;66.40
20337;DHT22;10326;53.660;10.200;2023-05-16T04:39:10;13.80;66.30
20337;DHT22;10326;53.660;10.200;2023-05-16T04:41:38;13.70;66.90
20337;DHT22;10326;53.660;10.200;2023-05-16T04:44:05;13.70;66.20
20337;DHT22;10326;53.660;10.200;2023-05-16T04:46:34;13.70;66.20
20337;DHT22;10326;53.660;10.200;2023-05-16T04:49:01;13.70;66.10
20337;DHT22;10326;53.660;10.200;2023-05-16T04:51:30;13.70;66.10
20337;DHT22;10326;53.660;10.200;2023-05-16T04:53:58;13.70;66.00
20337;DHT22;10326;53.660;10.200;2023-05-16T04:56:25;13.70;66.00
20337;DHT22;10326;53.660;10.200;2023-05-16T04:58:52;13.70;66.10
20337;DHT22;10326;53.660;10.200;2023-05-16T05:01:20;13.70;66.00
20337;DHT22;10326;53.660;10.200;2023-05-16T05:03:47;13.70;66.00
20337;DHT22;10326;53.660;10.200;2023-05-16T05:06:14;13.70;66.10
20337;DHT22;10326;53.660;10.200;2023-05-16T05:08:43;13.80;66.00
20337;DHT22;10326;53.660;10.200;2023-05-16T05:11:10;13.70;65.80
20337;DHT22;10326;53.660;10.200;2023-05-16T05:13:37;13.70;65.80
20337;DHT22;10326;53.660;10.200;2023-05-16T05:16:05;13.70;65.80
20337;DHT22;10326;53.660;10.200;2023-05-16T05:18:33;13.80;65.70
20337;DHT22;10326;53.660;10.200;2023-05-16T05:21:00;13.70;65.20
20337;DHT22;10326;53.660;10.200;2023-05-16T05:23:36;13.70;64.90
20337;DHT22;10326;53.660;10.200;2023-05-16T05:26:20;13.70;64.50
20337;DHT22;10326;53.660;10.200;2023-05-16T05:28:50;13.70;64.30
20337;DHT22;10326;53.660;10.200;2023-05-16T05:31:32;13.60;64.20
20337;DHT22;10326;53.660;10.200;2023-05-16T05:34:27;13.60;64.10
20337;DHT22;10326;53.660;10.200;2023-05-16T05:36:54;13.50;64.20
20337;DHT22;10326;53.660;10.200;2023-05-16T05:39:23;13.50;64.10
20337;DHT22;10326;53.660;10.200;2023-05-16T05:45:34;13.50;63.90
20337;DHT22;10326;53.660;10.200;2023-05-16T05:48:02;13.40;63.80
20337;DHT22;10326;53.660;10.200;2023-05-16T05:50:35;13.40;63.90
20337;DHT22;10326;53.660;10.200;2023-05-16T05:53:02;13.40;63.80
20337;DHT22;10326;53.660;10.200;2023-05-16T05:55:36;13.40;63.60
20337;DHT22;10326;53.660;10.200;2023-05-16T05:58:06;13.40;63.70
20337;DHT22;10326;53.660;10.200;2023-05-16T06:00:34;13.40;63.90
20337;DHT22;10326;53.660;10.200;2023-05-16T06:03:02;13.40;63.80
20337;DHT22;10326;53.660;10.200;2023-05-16T06:05:29;13.40;63.80
20337;DHT22;10326;53.660;10.200;2023-05-16T06:07:56;13.50;63.80
20337;DHT22;10326;53.660;10.200;2023-05-16T06:10:23;13.50;63.70
20337;DHT22;10326;53.660;10.200;2023-05-16T06:12:50;13.50;63.40
20337;DHT22;10326;53.660;10.200;2023-05-16T06:15:18;13.60;63.10
20337;DHT22;10326;53.660;10.200;2023-05-16T06:17:46;13.60;63.20
20337;DHT22;10326;53.660;10.200;2023-05-16T06:20:13;13.60;62.70
20337;DHT22;10326;53.660;10.200;2023-05-16T06:22:41;13.60;62.80
20337;DHT22;10326;53.660;10.200;2023-05-16T06:25:08;13.50;62.90
20337;DHT22;10326;53.660;10.200;2023-05-16T06:27:36;13.50;62.70
20337;DHT22;10326;53.660;10.200;2023-05-16T06:30:04;13.50;62.70
20337;DHT22;10326;53.660;10.200;2023-05-16T06:32:32;13.50;62.50
20337;DHT22;10326;53.660;10.200;2023-05-16T06:35:00;13.50;62.60
20337;DHT22;10326;53.660;10.200;2023-05-16T06:37:27;13.50;62.70
20337;DHT22;10326;53.660;10.200;2023-05-16T06:39:54;13.50;63.00
20337;DHT22;10326;53.660;10.200;2023-05-16T06:42:21;13.60;63.00
20337;DHT22;10326;53.660;10.200;2023-05-16T06:44:49;13.60;63.10
20337;DHT22;10326;53.660;10.200;2023-05-16T06:47:16;13.60;62.10
20337;DHT22;10326;53.660;10.200;2023-05-16T06:49:43;13.70;61.80
20337;DHT22;10326;53.660;10.200;2023-05-16T06:52:11;13.70;61.60
20337;DHT22;10326;53.660;10.200;2023-05-16T06:54:38;13.70;61.20
20337;DHT22;10326;53.660;10.200;2023-05-16T06:57:05;13.80;61.10
20337;DHT22;10326;53.660;10.200;2023-05-16T06:59:33;13.80;60.70
20337;DHT22;10326;53.660;10.200;2023-05-16T07:02:01;13.80;60.40
20337;DHT22;10326;53.660;10.200;2023-05-16T07:04:28;13.80;60.30
20337;DHT22;10326;53.660;10.200;2023-05-16T07:06:55;13.80;59.90
20337;DHT22;10326;53.660;10.200;2023-05-16T07:09:24;13.90;59.80
20337;DHT22;10326;53.660;10.200;2023-05-16T07:11:51;13.90;60.10
20337;DHT22;10326;53.660;10.200;2023-05-16T07:14:18;13.90;60.40
20337;DHT22;10326;53.660;10.200;2023-05-16T07:16:45;13.90;60.50
20337;DHT22;10326;53.660;10.200;2023-05-16T07:19:12;13.90;60.70
20337;DHT22;10326;53.660;10.200;2023-05-16T07:21:39;13.90;60.80
20337;DHT22;10326;53.660;10.200;2023-05-16T07:24:07;14.00;61.10
20337;DHT22;10326;53.660;10.200;2023-05-16T07:26:35;14.00;61.20
20337;DHT22;10326;53.660;10.200;2023-05-16T07:29:02;14.00;61.00
20337;DHT22;10326;53.660;10.200;2023-05-16T07:31:29;14.00;61.00
20337;DHT22;10326;53.660;10.200;2023-05-16T07:33:56;14.00;61.10
20337;DHT22;10326;53.660;10.200;2023-05-16T07:36:24;14.00;61.20
20337;DHT22;10326;53.660;10.200;2023-05-16T07:38:51;14.10;61.10
20337;DHT22;10326;53.660;10.200;2023-05-16T07:41:18;14.00;61.30
20337;DHT22;10326;53.660;10.200;2023-05-16T07:43:47;14.00;59.90
20337;DHT22;10326;53.660;10.200;2023-05-16T07:46:14;14.00;60.20
20337;DHT22;10326;53.660;10.200;2023-05-16T07:48:41;14.10;60.40
20337;DHT22;10326;53.660;10.200;2023-05-16T07:51:08;14.10;59.90
20337;DHT22;10326;53.660;10.200;2023-05-16T07:53:35;14.10;59.80
20337;DHT22;10326;53.660;10.200;2023-05-16T07:56:03;14.10;59.70
20337;DHT22;10326;53.660;10.200;2023-05-16T07:58:31;14.20;59.60
20337;DHT22;10326;53.660;10.200;2023-05-16T08:00:59;14.20;58.90
20337;DHT22;10326;53.660;10.200;2023-05-16T08:03:26;14.20;59.20
20337;DHT22;10326;53.660;10.200;2023-05-16T08:05:55;14.30;59.10
20337;DHT22;10326;53.660;10.200;2023-05-16T08:08:22;14.30;59.30
20337;DHT22;10326;53.660;10.200;2023-05-16T08:10:49;14.30;58.90
20337;DHT22;10326;53.660;10.200;2023-05-16T08:13:17;14.40;58.60
20337;DHT22;10326;53.660;10.200;2023-05-16T08:15:44;14.40;58.50
20337;DHT22;10326;53.660;10.200;2023-05-16T08:18:13;14.50;58.10
20337;DHT22;10326;53.660;10.200;2023-05-16T08:20:41;14.50;57.90
20337;DHT22;10326;53.660;10.200;2023-05-16T08:23:08;14.50;57.70
20337;DHT22;10326;53.660;10.200;2023-05-16T08:25:35;14.60;57.80
20337;DHT22;10326;53.660;10.200;2023-05-16T08:28:03;14.60;57.10
20337;DHT22;10326;53.660;10.200;2023-05-16T08:30:30;14.60;57.40
20337;DHT22;10326;53.660;10.200;2023-05-16T08:32:57;14.70;57.30
20337;DHT22;10326;53.660;10.200;2023-05-16T08:35:25;14.70;57.40
20337;DHT22;10326;53.660;10.200;2023-05-16T08:37:53;14.80;56.60
20337;DHT22;10326;53.660;10.200;2023-05-16T08:40:21;14.80;56.80
20337;DHT22;10326;53.660;10.200;2023-05-16T08:42:51;14.80;56.10
20337;DHT22;10326;53.660;10.200;2023-05-16T08:45:19;14.90;56.20
20337;DHT22;10326;53.660;10.200;2023-05-16T08:47:49;14.90;56.50
20337;DHT22;10326;53.660;10.200;2023-05-16T08:50:17;15.00;56.00
20337;DHT22;10326;53.660;10.200;2023-05-16T08:52:46;15.00;56.10
20337;DHT22;10326;53.660;10.200;2023-05-16T08:55:19;15.10;55.80
20337;DHT22;10326;53.660;10.200;2023-05-16T08:57:48;15.10;55.50
20337;DHT22;10326;53.660;10.200;2023-05-16T09:00:17;15.20;54.80
20337;DHT22;10326;53.660;10.200;2023-05-16T09:02:45;15.20;55.10
20337;DHT22;10326;53.660;10.200;2023-05-16T09:05:14;15.20;55.80
20337;DHT22;10326;53.660;10.200;2023-05-16T09:07:49;15.30;55.90
20337;DHT22;10326;53.660;10.200;2023-05-16T09:10:17;15.40;54.70
20337;DHT22;10326;53.660;10.200;2023-05-16T09:12:48;15.40;54.20
20337;DHT22;10326;53.660;10.200;2023-05-16T09:15:17;15.40;53.70
20337;DHT22;10326;53.660;10.200;2023-05-16T09:17:45;15.40;54.30
20337;DHT22;10326;53.660;10.200;2023-05-16T09:20:18;15.40;54.30
20337;DHT22;10326;53.660;10.200;2023-05-16T09:22:51;15.50;54.20
20337;DHT22;10326;53.660;10.200;2023-05-16T09:25:22;15.50;54.80
20337;DHT22;10326;53.660;10.200;2023-05-16T09:27:52;15.50;55.20
20337;DHT22;10326;53.660;10.200;2023-05-16T09:30:47;15.50;55.10
20337;DHT22;10326;53.660;10.200;2023-05-16T09:33:59;15.50;55.10
20337;DHT22;10326;53.660;10.200;2023-05-16T09:36:26;15.60;54.00
20337;DHT22;10326;53.660;10.200;2023-05-16T09:42:11;15.60;53.80
20337;DHT22;10326;53.660;10.200;2023-05-16T09:44:39;15.50;53.60
20337;DHT22;10326;53.660;10.200;2023-05-16T09:47:07;15.60;53.50
20337;DHT22;10326;53.660;10.200;2023-05-16T09:49:40;15.60;53.70
20337;DHT22;10326;53.660;10.200;2023-05-16T09:52:29;15.60;53.50
20337;DHT22;10326;53.660;10.200;2023-05-16T09:54:58;15.60;53.20
20337;DHT22;10326;53.660;10.200;2023-05-16T09:57:25;15.60;54.40
20337;DHT22;10326;53.660;10.200;2023-05-16T09:59:58;15.60;54.40
20337;DHT22;10326;53.660;10.200;2023-05-16T10:02:26;15.70;54.10
20337;DHT22;10326;53.660;10.200;2023-05-16T10:04:53;15.70;53.00
20337;DHT22;10326;53.660;10.200;2023-05-16T10:07:20;15.80;52.80
20337;DHT22;10326;53.660;10.200;2023-05-16T10:09:50;15.80;52.40
20337;DHT22;10326;53.660;10.200;2023-05-16T10:12:20;15.80;51.90
20337;DHT22;10326;53.660;10.200;2023-05-16T10:14:55;15.80;52.20
20337;DHT22;10326;53.660;10.200;2023-05-16T10:20:11;15.90;52.80
20337;DHT22;10326;53.660;10.200;2023-05-16T10:22:42;15.90;52.70
20337;DHT22;10326;53.660;10.200;2023-05-16T10:25:16;15.90;52.80
20337;DHT22;10326;53.660;10.200;2023-05-16T10:27:50;15.90;51.70
20337;DHT22;10326;53.660;10.200;2023-05-16T10:30:17;15.90;51.60
20337;DHT22;10326;53.660;10.200;2023-05-16T10:32:45;15.90;52.20
20337;DHT22;10326;53.660;10.200;2023-05-16T10:35:13;16.00;52.30
20337;DHT22;10326;53.660;10.200;2023-05-16T10:37:55;16.00;52.00
20337;DHT22;10326;53.660;10.200;2023-05-16T10:40:23;16.10;52.20
20337;DHT22;10326;53.660;10.200;2023-05-16T10:42:57;16.10;52.20
20337;DHT22;10326;53.660;10.200;2023-05-16T10:45:25;16.10;51.40
20337;DHT22;10326;53.660;10.200;2023-05-16T10:47:54;16.10;51.70
20337;DHT22;10326;53.660;10.200;2023-05-16T10:50:37;16.00;52.00
20337;DHT22;10326;53.660;10.200;2023-05-16T10:53:13;16.00;52.40
20337;DHT22;10326;53.660;10.200;2023-05-16T10:56:06;16.10;51.70
20337;DHT22;10326;53.660;10.200;2023-05-16T10:58:45;16.10;51.10
20337;DHT22;10326;53.660;10.200;2023-05-16T11:01:41;16.10;51.30
20337;DHT22;10326;53.660;10.200;2023-05-16T11:04:09;16.20;52.10
20337;DHT22;10326;53.660;10.200;2023-05-16T11:06:45;16.20;52.30
20337;DHT22;10326;53.660;10.200;2023-05-16T11:09:22;16.30;52.00
20337;DHT22;10326;53.660;10.200;2023-05-16T11:11:56;16.30;52.00
20337;DHT22;10326;53.660;10.200;2023-05-16T11:14:33;16.30;52.10
20337;DHT22;10326;53.660;10.200;2023-05-16T11:17:09;16.20;51.50
20337;DHT22;10326;53.660;10.200;2023-05-16T11:19:42;16.10;51.30
20337;DHT22;10326;53.660;10.200;2023-05-16T11:22:24;16.10;52.00
20337;DHT22;10326;53.660;10.200;2023-05-16T11:24:57;16.00;52.00
20337;DHT22;10326;53.660;10.200;2023-05-16T11:27:30;15.90;52.20
20337;DHT22;10326;53.660;10.200;2023-05-16T11:30:17;15.90;52.20
20337;DHT22;10326;53.660;10.200;2023-05-16T11:32:54;15.80;52.40
20337;DHT22;10326;53.660;10.200;2023-05-16T11:35:21;15.70;52.30
20337;DHT22;10326;53.660;10.200;2023-05-16T11:38:01;15.70;52.80
20337;DHT22;10326;53.660;10.200;2023-05-16T11:40:28;15.70;53.30
20337;DHT22;10326;53.660;10.200;2023-05-16T11:42:59;15.70;53.40
20337;DHT22;10326;53.660;10.200;2023-05-16T11:45:52;15.70;53.10
20337;DHT22;10326;53.660;10.200;2023-05-16T11:48:22;15.70;52.80
20337;DHT22;10326;53.660;10.200;2023-05-16T11:50:50;15.70;52.70
20337;DHT22;10326;53.660;10.200;2023-05-16T11:53:19;15.70;53.10
20337;DHT22;10326;53.660;10.200;2023-05-16T11:55:50;15.80;53.10
20337;DHT22;10326;53.660;10.200;2023-05-16T11:58:24;15.90;53.50
20337;DHT22;10326;53.660;10.200;2023-05-16T12:00:53;16.00;53.20
20337;DHT22;10326;53.660;10.200;2023-05-16T12:03:23;16.10;53.10
20337;DHT22;10326;53.660;10.200;2023-05-16T12:05:51;16.30;53.20
20337;DHT22;10326;53.660;10.200;2023-05-16T12:08:20;16.40;53.50
20337;DHT22;10326;53.660;10.200;2023-05-16T12:10:50;16.60;53.20
20337;DHT22;10326;53.660;10.200;2023-05-16T12:13:19;16.70;50.60
20337;DHT22;10326;53.660;10.200;2023-05-16T12:15:49;16.80;50.30
20337;DHT22;10326;53.660;10.200;2023-05-16T12:18:23;16.90;51.10
20337;DHT22;10326;53.660;10.200;2023-05-16T12:20:55;16.90;51.10
20337;DHT22;10326;53.660;10.200;2023-05-16T12:23:26;17.00;50.70
20337;DHT22;10326;53.660;10.200;2023-05-16T12:25:59;17.00;50.10
20337;DHT22;10326;53.660;10.200;2023-05-16T12:28:33;16.90;49.50
20337;DHT22;10326;53.660;10.200;2023-05-16T12:31:02;16.80;50.40
20337;DHT22;10326;53.660;10.200;2023-05-16T12:33:59;16.80;50.70
20337;DHT22;10326;53.660;10.200;2023-05-16T12:36:30;16.90;51.10
20337;DHT22;10326;53.660;10.200;2023-05-16T12:39:02;17.00;50.70
20337;DHT22;10326;53.660;10.200;2023-05-16T12:41:30;17.10;50.50
20337;DHT22;10326;53.660;10.200;2023-05-16T12:44:12;17.10;49.60
20337;DHT22;10326;53.660;10.200;2023-05-16T12:46:43;17.10;48.90
20337;DHT22;10326;53.660;10.200;2023-05-16T12:49:12;17.10;49.30
20337;DHT22;10326;53.660;10.200;2023-05-16T12:51:40;17.00;49.40
20337;DHT22;10326;53.660;10.200;2023-05-16T12:54:26;17.00;50.40
20337;DHT22;10326;53.660;10.200;2023-05-16T12:56:53;16.90;50.00
20337;DHT22;10326;53.660;10.200;2023-05-16T12:59:20;16.90;50.40
20337;DHT22;10326;53.660;10.200;2023-05-16T13:01:47;16.90;50.80
20337;DHT22;10326;53.660;10.200;2023-05-16T13:04:16;16.90;50.90
20337;DHT22;10326;53.660;10.200;2023-05-16T13:06:51;16.80;50.90
20337;DHT22;10326;53.660;10.200;2023-05-16T13:09:18;16.70;50.80
20337;DHT22;10326;53.660;10.200;2023-05-16T13:11:46;16.60;51.00
20337;DHT22;10326;53.660;10.200;2023-05-16T13:14:13;16.50;51.10
20337;DHT22;10326;53.660;10.200;2023-05-16T13:16:43;16.30;51.30
20337;DHT22;10326;53.660;10.200;2023-05-16T13:19:10;16.20;51.20
20337;DHT22;10326;53.660;10.200;2023-05-16T13:21:39;16.10;51.50
20337;DHT22;10326;53.660;10.200;2023-05-16T13:24:06;16.00;50.80
20337;DHT22;10326;53.660;10.200;2023-05-16T13:26:33;16.00;51.10
20337;DHT22;10326;53.660;10.200;2023-05-16T13:29:02;15.90;50.50
20337;DHT22;10326;53.660;10.200;2023-05-16T13:31:34;15.90;51.20
20337;DHT22;10326;53.660;10.200;2023-05-16T13:34:05;16.00;50.30
20337;DHT22;10326;53.660;10.200;2023-05-16T13:36:33;16.00;50.30
20337;DHT22;10326;53.660;10.200;2023-05-16T13:39:02;16.10;50.30
20337;DHT22;10326;53.660;10.200;2023-05-16T13:41:29;16.10;50.10
20337;DHT22;10326;53.660;10.200;2023-05-16T13:43:58;16.10;50.10
20337;DHT22;10326;53.660;10.200;2023-05-16T13:46:25;16.20;50.50
20337;DHT22;10326;53.660;10.200;2023-05-16T13:48:52;16.20;50.00
20337;DHT22;10326;53.660;10.200;2023-05-16T13:51:19;16.20;50.10
20337;DHT22;10326;53.660;10.200;2023-05-16T13:53:46;16.20;50.60
20337;DHT22;10326;53.660;10.200;2023-05-16T13:56:16;16.30;50.00
20337;DHT22;10326;53.660;10.200;2023-05-16T13:58:43;16.40;49.40
20337;DHT22;10326;53.660;10.200;2023-05-16T14:01:10;16.40;49.00
20337;DHT22;10326;53.660;10.200;2023-05-16T14:03:42;16.40;49.50
20337;DHT22;10326;53.660;10.200;2023-05-16T14:06:17;16.50;49.70
20337;DHT22;10326;53.660;10.200;2023-05-16T14:08:46;16.40;49.90
20337;DHT22;10326;53.660;10.200;2023-05-16T14:11:15;16.50;50.40
20337;DHT22;10326;53.660;10.200;2023-05-16T14:13:44;16.60;51.10
20337;DHT22;10326;53.660;10.200;2023-05-16T14:16:12;16.70;50.70
20337;DHT22;10326;53.660;10.200;2023-05-16T14:18:39;16.80;51.00
20337;DHT22;10326;53.660;10.200;2023-05-16T14:21:09;16.90;50.70
20337;DHT22;10326;53.660;10.200;2023-05-16T14:23:36;17.00;50.60
20337;DHT22;10326;53.660;10.200;2023-05-16T14:26:04;17.00;50.30
20337;DHT22;10326;53.660;10.200;2023-05-16T14:28:33;17.10;50.40
20337;DHT22;10326;53.660;10.200;2023-05-16T14:31:00;17.10;50.20
20337;DHT22;10326;53.660;10.200;2023-05-16T14:33:28;17.10;50.20
20337;DHT22;10326;53.660;10.200;2023-05-16T14:36:03;17.00;50.40
20337;DHT22;10326;53.660;10.200;2023-05-16T14:38:30;17.00;50.50
20337;DHT22;10326;53.660;10.200;2023-05-16T14:40:57;16.90;50.00
20337;DHT22;10326;53.660;10.200;2023-05-16T14:43:24;16.80;49.90
20337;DHT22;10326;53.660;10.200;2023-05-16T14:45:53;16.70;50.00
20337;DHT22;10326;53.660;10.200;2023-05-16T14:48:20;16.50;49.40
20337;DHT22;10326;53.660;10.200;2023-05-16T14:50:47;16.40;49.70
20337;DHT22;10326;53.660;10.200;2023-05-16T14:53:14;16.30;49.40
20337;DHT22;10326;53.660;10.200;2023-05-16T14:55:53;16.30;49.80
20337;DHT22;10326;53.660;10.200;2023-05-16T14:58:22;16.20;49.20
20337;DHT22;10326;53.660;10.200;2023-05-16T15:00:49;16.20;49.20
20337;DHT22;10326;53.660;10.200;2023-05-16T15:03:21;16.20;49.20
20337;DHT22;10326;53.660;10.200;2023-05-16T15:05:53;16.10;48.80
20337;DHT22;10326;53.660;10.200;2023-05-16T15:08:22;16.10;49.00
20337;DHT22;10326;53.660;10.200;2023-05-16T15:10:50;16.10;48.90
20337;DHT22;10326;53.660;10.200;2023-05-16T15:13:18;16.10;48.80
20337;DHT22;10326;53.660;10.200;2023-05-16T15:15:47;16.00;49.10
20337;DHT22;10326;53.660;10.200;2023-05-16T15:18:14;16.00;49.40
20337;DHT22;10326;53.660;10.200;2023-05-16T15:20:46;16.00;49.20
20337;DHT22;10326;53.660;10.200;2023-05-16T15:23:17;16.00;48.60
20337;DHT22;10326;53.660;10.200;2023-05-16T15:25:45;16.10;49.20
20337;DHT22;10326;53.660;10.200;2023-05-16T15:28:12;16.10;49.10
20337;DHT22;10326;53.660;10.200;2023-05-16T15:30:40;16.00;49.50
20337;DHT22;10326;53.660;10.200;2023-05-16T15:33:07;15.90;49.50
20337;DHT22;10326;53.660;10.200;2023-05-16T15:35:34;15.90;49.50
20337;DHT22;10326;53.660;10.200;2023-05-16T15:38:02;15.80;49.80
20337;DHT22;10326;53.660;10.200;2023-05-16T15:40:30;15.80;50.10
20337;DHT22;10326;53.660;10.200;2023-05-16T15:42:57;15.70;50.30